EW5089 Weather Reports


Display with metric or nautical units.
time (UTC)temp
F
wind
direction
speed
MPH
gust
MPH
rain 1hr
in
rain 24hr
in
rain mn
in
humidity
%
barometer
mb
20190919171528 49 294 1.0 5.0 0.00 0.50 0.01 96 1016.5
20190919170008 48 294 0.0 3.0 0.00 0.50 0.01 96 1016.6
20190919164533 47 294 0.0 4.0 0.00 0.50 0.01 95 1016.6
20190919163112 47 294 1.0 3.0 0.00 0.50 0.01 96 1016.6
20190919161712 47 294 0.0 2.0 0.00 0.50 0.01 96 1016.7
20190919160114 47 5 0.0 0.0 0.00 0.50 0.01 96 1016.8
20190919154637 46 5 0.0 1.0 0.00 0.50 0.01 96 1016.7
20190919153110 46 313 0.0 0.0 0.00 0.50 0.01 96 1016.5
20190919151621 46 313 0.0 1.0 0.00 0.50 0.01 95 1016.3
20190919150108 46 313 0.0 1.0 0.00 0.50 0.01 95 1016.2
20190919144618 45 313 0.0 0.0 0.00 0.50 0.01 95 1016.1
20190919143039 45 313 0.0 0.0 0.00 0.50 0.01 95 1016.0
20190919141544 45 313 0.0 0.0 0.00 0.50 0.01 95 1015.8
20190919140039 45 313 0.0 2.0 0.00 0.50 0.01 95 1015.7
20190919134556 45 313 0.0 0.0 0.00 0.50 0.01 95 1015.6
20190919133028 45 313 0.0 1.0 0.00 0.50 0.01 95 1015.5
20190919131536 45 313 0.0 0.0 0.00 0.50 0.01 95 1015.3
20190919130022 45 313 0.0 0.0 0.00 0.50 0.01 95 1015.2
20190919124528 45 313 0.0 0.0 0.00 0.50 0.01 95 1015.0
20190919123036 45 313 0.0 0.0 0.00 0.50 0.01 95 1014.9
20190919121535 45 313 0.0 0.0 0.00 0.50 0.01 95 1014.9
20190919120040 45 313 0.0 0.0 0.00 0.50 0.01 95 1014.9
20190919114529 45 313 0.0 0.0 0.00 0.50 0.01 95 1014.6
20190919113033 45 313 0.0 0.0 0.00 0.50 0.01 95 1014.7
20190919111523 45 313 0.0 0.0 0.00 0.50 0.01 95 1014.7
20190919110014 45 313 0.0 0.0 0.00 0.50 0.01 95 1014.6
20190919104509 46 313 0.0 0.0 0.01 0.50 0.01 95 1014.6
20190919103020 46 313 0.0 2.0 0.01 0.50 0.01 95 1014.6
20190919101507 46 313 0.0 2.0 0.01 0.50 0.01 95 1014.5
20190919100018 46 313 1.0 3.0 0.01 0.50 0.01 95 1014.6
20190919094527 46 313 0.0 2.0 0.00 0.50 0.00 95 1014.6
20190919093016 46 313 0.0 2.0 0.00 0.50 0.00 95 1014.4
20190919091857 46 313 0.0 0.0 0.00 0.50 0.00 95 1014.3
20190919090128 46 313 0.0 0.0 0.00 0.50 0.00 95 1014.3
20190919084730 46 313 0.0 1.0 0.00 0.50 0.00 95 1014.3
20190919083129 46 313 0.0 0.0 0.00 0.50 0.00 95 1014.1
20190919081808 46 313 0.0 0.0 0.00 0.50 0.00 95 1014.0
20190919080241 46 313 0.0 0.0 0.00 0.50 0.00 95 1013.8
20190919074632 46 313 0.0 0.0 0.00 0.50 0.00 95 1013.6
20190919073055 46 313 0.0 2.0 0.00 0.50 0.00 95 1013.5
20190919071625 46 313 0.0 1.0 0.00 0.50 0.00 95 1013.4
20190919070145 45 313 0.0 1.0 0.00 0.50 0.00 95 1013.4
20190919064635 45 313 0.0 1.0 0.00 0.50 0.50 94 1013.4
20190919063124 45 313 0.0 2.0 0.00 0.50 0.50 94 1013.3
20190919061708 45 313 0.0 2.0 0.00 0.50 0.50 94 1013.3
20190919060106 45 313 0.0 1.0 0.00 0.50 0.50 94 1013.4
20190919054650 45 313 0.0 2.0 0.00 0.50 0.50 94 1013.4
20190919053115 46 313 0.0 4.0 0.00 0.50 0.50 94 1013.3
20190919051706 46 313 0.0 4.0 0.00 0.50 0.50 94 1013.3
20190919050105 46 313 2.0 5.0 0.01 0.50 0.50 94 1013.3
20190919044619 46 331 0.0 2.0 0.01 0.50 0.50 94 1013.3
20190919043146 46 331 1.0 3.0 0.01 0.50 0.50 94 1013.2
20190919041713 47 327 2.0 6.0 0.01 0.50 0.50 94 1013.1
20190919040120 47 280 1.0 3.0 0.00 0.49 0.49 94 1012.9
20190919034558 47 280 0.0 3.0 0.01 0.49 0.49 94 1012.6
20190919033116 47 280 0.0 0.0 0.01 0.49 0.49 94 1012.5
20190919031611 47 280 0.0 0.0 0.01 0.49 0.49 94 1012.3
20190919030044 47 280 0.0 0.0 0.03 0.49 0.49 94 1012.2
20190919024538 47 280 0.0 2.0 0.03 0.48 0.48 94 1012.1
20190919023008 47 280 0.0 1.0 0.04 0.48 0.48 94 1011.9
20190919021524 47 280 0.0 0.0 0.06 0.48 0.48 94 1011.8
20190919020017 47 280 0.0 0.0 0.06 0.46 0.46 94 1011.7
20190919014619 46 280 0.0 0.0 0.07 0.46 0.45 94 1011.6
20190919013110 46 280 0.0 0.0 0.09 0.46 0.45 94 1011.5
20190919011617 46 280 0.0 0.0 0.11 0.43 0.42 94 1011.4
20190919010112 45 280 0.0 1.0 0.15 0.41 0.40 93 1011.1
20190919004621 44 280 0.0 0.0 0.21 0.39 0.38 92 1011.0
20190919003048 44 248 0.0 2.0 0.27 0.37 0.36 91 1010.8
20190919001543 44 248 0.0 1.0 0.22 0.32 0.31 88 1010.7
20190919000036 46 248 1.0 5.0 0.15 0.25 0.24 85 1010.6
20190918234635 50 309 11.0 20.0 0.06 0.16 0.15 75 1010.5
20190918233044 55 306 2.0 5.0 0.00 0.10 0.09 75 1009.8
20190918231528 56 314 2.0 5.0 0.00 0.10 0.09 71 1009.5
20190918230027 56 9 2.0 4.0 0.04 0.10 0.09 72 1009.3
20190918224519 54 130 0.0 4.0 0.06 0.11 0.09 81 1009.2
20190918223018 52 191 1.0 4.0 0.06 0.11 0.09 87 1009.3
20190918221521 51 178 2.0 4.0 0.06 0.11 0.09 89 1009.4
20190918220105 51 258 2.0 9.0 0.03 0.07 0.05 81 1009.5
20190918214524 52 260 3.0 8.0 0.01 0.05 0.03 79 1009.4
20190918213102 53 311 4.0 13.0 0.01 0.05 0.03 81 1009.1
20190918211512 53 255 3.0 7.0 0.01 0.05 0.03 76 1009.1
20190918210020 55 236 6.0 11.0 0.00 0.04 0.02 67 1009.0
20190918204513 57 298 2.0 10.0 0.01 0.04 0.02 63 1008.8
20190918203023 57 242 1.0 10.0 0.01 0.04 0.02 63 1008.8
20190918201511 53 270 4.0 9.0 0.01 0.04 0.02 74 1008.9
20190918200032 52 251 0.0 6.0 0.01 0.04 0.02 77 1009.2
20190918194512 53 240 2.0 11.0 0.00 0.05 0.01 70 1009.3
20190918193005 54 290 6.0 10.0 0.00 0.05 0.01 66 1009.4
20190918191503 55 255 3.0 12.0 0.00 0.05 0.01 61 1009.2
20190918190003 56 219 3.0 11.0 0.00 0.05 0.01 63 1009.3
20190918184508 57 181 2.0 9.0 0.00 0.06 0.01 61 1009.4
20190918183229 57 175 6.0 11.0 0.00 0.06 0.01 62 1009.3
20190918181637 55 196 5.0 11.0 0.00 0.06 0.01 67 1009.4
20190918180154 54 265 3.0 11.0 0.00 0.06 0.01 70 1009.5
20190918174631 52 165 4.0 9.0 0.00 0.08 0.01 75 1009.6
20190918173219 50 163 2.0 9.0 0.00 0.08 0.01 79 1009.7